Tuktut Nogait, Canada
Current Conditions -  °F | °C
As of 10:00 AM on Thursday 30 Oct 2014 (Local Time) from CYPC Reporting Station
Overcast Overcast  
Wind Chill:   Ceiling: 1500
Heat Index: 18°   Visibility: 15mi
Dew Point: 14°   Wind: 9mph
Humidity: 86%   Direction: 210°SSW
Pressure: 29.8"   Gusts: NA
Location:  69.18°N, 122.35°W
Report Text: CYPC 301600Z 21008KT 15SM BKN015 OVC025 M08/M10 A2980 RMKSC6SC1 LAST OBS/NEXT 301800Z SLP092
Loading
Personal Weather Stations






























Interactive Weather Map
Tropical Storm Tracking
New forecast layout! Learn more

10-Day Weather Forecast

Advertisements
Track Severe Weather on mobile